Terminal Aerodrome Forecast
Issued by NWS Goodland, KS

Home | Current Version | Previous Version | Text Only | Print | Product List | Glossary On
Versions: 1 2 3 4 5 6 7 8 9 10 11 12 13 14
779
FTUS43 KGLD 121121
TAFGLD
TAF
KGLD 121121Z 1212/1312 27005KT P6SM SCT250
     FM121600 04006KT P6SM SCT120
     FM122000 11007KT P6SM SCT050
     FM130300 14011KT 5SM BR OVC025
     FM130600 15011KT 1SM -FZDZ BR BKN005=

USA.gov is the U.S. government's official web portal to all federal, state and local government web resources and services.